Latest Coastal Weather Observations for Orbost

IDV60701

Issued at 5:02 pm EST Thursday 30 May 2024 (issued every 10 minutes, with the page automatically refreshed every 10 minutes)

About coastal observations | Map of coastal stations | Coastal observations for VIC | Marine services | Other Formats
Station Details ID: 084145 Name: ORBOST Lat: -37.69 Lon: 148.47 Height: 62.65 m
Data from the previous 72 hours. | See also: Recent months at Orbost
Date/Time
EST
Wind Sea
Height
m
Swell Vis
km
Cloud Weather Temp
°C
Press
MSL
hPa
Rain since
9am
mm
Dir  Spd
kts
Gust
kts
Height
m
Period
s
Dir
30/04:30pm NE 3 6 - - - - - - - 20.0 1013.7 -
30/04:00pm NE 3 6 - - - - - - - 19.6 1014.0 -
30/03:30pm ENE 2 5 - - - - - - - 20.1 1014.4 -
30/03:00pm NNE 7 12 - - - - - - - 21.4 1014.6 -
30/02:30pm NNE 4 8 - - - - - - - 21.8 1014.4 -
30/02:00pm N 7 12 - - - - - - - 22.3 1014.9 -
30/01:30pm N 9 15 - - - - - - - 22.7 1015.5 -
30/01:00pm N 7 10 - - - - - - - 23.0 1016.2 -
30/12:30pm N 7 10 - - - - - - - 22.6 1016.7 -
30/12:00pm N 9 16 - - - - - - - 23.1 1017.1 -
30/11:30am N 11 16 - - - - - - - 23.2 1017.4 -
30/11:00am N 11 15 - - - - - - - 23.1 1017.5 -
30/10:30am - - - - - - - - - - 22.5 1018.3 -
30/08:00am NE 3 5 - - - - - - - 13.4 1019.5 -
30/04:42am NE 4 7 - - - - - - - 14.2 1019.1 -
30/04:30am CALM 0 0 - - - - - - - 8.7 1019.4 -
30/04:00am CALM 0 0 - - - - - - - 10.3 1019.5 -
30/03:30am NW 2 3 - - - - - - - 7.8 1019.7 -
30/03:00am CALM 0 1 - - - - - - - 7.6 1019.9 0.0
30/02:30am CALM 0 0 - - - - - - - 9.6 1020.3 -
30/02:00am CALM 0 0 - - - - - - - 9.6 1020.4 -
30/01:30am NNE 3 5 - - - - - - - 12.1 1020.6 -
30/01:00am CALM 0 3 - - - - - - - 9.3 1020.8 -
30/12:30am CALM 0 0 - - - - - - - 8.3 1020.8 -
30/12:00am NNW 2 3 - - - - - - - 8.5 1020.8 -
 
Date/Time
EST
Wind Sea
Height
m
Swell Vis
km
Cloud Weather Temp
°C
Press
MSL
hPa
Rain since
9am
mm
Dir  Spd
kts
Gust
kts
Height
m
Period
s
Dir
29/11:30pm CALM 0 0 - - - - - - - 10.1 1021.1 -
29/11:00pm ENE 1 3 - - - - - - - 11.9 1021.4 -
29/10:30pm ENE 2 3 - - - - - - - 12.7 1021.6 -
29/10:00pm CALM 0 2 - - - - - - - 11.7 1022.0 -
29/09:30pm CALM 0 1 - - - - - - - 12.3 1022.2 -
29/09:00pm N 3 4 - - - - - - - 15.1 1022.3 -
29/08:30pm CALM 0 0 - - - - - - - 12.3 1022.6 -
29/08:00pm N 4 5 - - - - - - - 14.2 1022.5 -
29/07:30pm NW 2 3 - - - - - - - 12.7 1022.5 -
29/07:00pm N 2 3 - - - - - - - 14.8 1022.2 0.0
29/06:30pm NNW 1 2 - - - - - - - 14.6 1022.1 0.0
29/06:00pm N 2 3 - - - - - - - 15.7 1021.9 0.0
29/05:30pm SE 2 3 - - - - - - - 15.4 1021.7 0.0
29/05:00pm ENE 4 6 - - - - - - - 17.3 1021.7 0.0
29/04:30pm E 4 6 - - - - - - - 19.2 1021.5 0.0
29/04:00pm E 3 5 - - - - - - - 20.7 1021.4 0.0
29/03:30pm SE 2 4 - - - - - - - 21.1 1021.6 0.0
29/03:00pm SE 3 5 - - - - - - - 21.8 1021.7 0.0
29/02:30pm SE 4 5 - - - - - - - 21.6 1021.8 0.0
29/02:00pm ESE 3 5 - - - - - - - 21.5 1022.0 0.0
29/01:30pm SE 2 4 - - - - - - - 21.4 1022.2 0.0
29/01:00pm ESE 2 4 - - - - - - - 21.4 1022.8 0.0
29/12:30pm SE 1 2 - - - - - - - 20.6 1023.3 0.0
29/12:00pm WSW 3 4 - - - - - - - 19.0 1023.9 0.0
29/11:30am SSW 3 4 - - - - - - - 18.2 1024.4 0.0
29/11:00am WSW 1 2 - - - - - - - 16.9 1024.9 0.0
29/10:30am CALM 0 0 - - - - - - - 14.7 1025.3 0.0
29/10:00am SW 1 2 - - - - - - - 12.7 1025.5 0.0
29/09:30am CALM 0 0 - - - - - - - 10.6 1025.7 0.0
29/09:00am CALM 0 0 - - - - - - - 9.8 1025.6 -
29/08:30am WNW 1 2 - - - - - - - 8.3 1025.6 -
29/08:00am NNW 2 2 - - - - - - - 6.4 1025.6 -
29/07:30am CALM 0 0 - - - - - - - 5.2 1025.6 -
29/07:00am NW 1 3 - - - - - - - 5.9 1025.5 -
29/06:30am NNW 5 7 - - - - - - - 5.5 1025.3 -
29/06:00am NW 4 5 - - - - - - - 4.8 1025.2 -
29/05:30am CALM 0 0 - - - - - - - 5.5 1025.1 -
29/05:00am CALM 0 0 - - - - - - - 6.1 1025.0 -
29/04:30am ESE 2 3 - - - - - - - 5.9 1025.1 -
29/04:00am ENE 1 2 - - - - - - - 6.0 1025.2 -
29/03:30am NW 1 3 - - - - - - - 6.9 1025.3 -
29/03:00am NNW 2 2 - - - - - - - 7.9 1025.3 -
29/02:30am NNW 3 3 - - - - - - - 6.9 1025.5 -
29/02:00am N 3 3 - - - - - - - 7.7 1025.6 -
29/01:30am WNW 1 2 - - - - - - - 7.2 1025.6 -
29/01:00am NW 1 2 - - - - - - - 8.0 1025.7 -
29/12:30am CALM 0 0 - - - - - - - 8.0 1025.9 -
29/12:00am CALM 0 0 - - - - - - - 8.5 1026.1 -
 
Date/Time
EST
Wind Sea
Height
m
Swell Vis
km
Cloud Weather Temp
°C
Press
MSL
hPa
Rain since
9am
mm
Dir  Spd
kts
Gust
kts
Height
m
Period
s
Dir
28/11:30pm CALM 0 0 - - - - - - - 8.7 1026.5 -
28/11:00pm CALM 0 0 - - - - - - - 8.9 1026.8 -
28/10:30pm CALM 0 0 - - - - - - - 8.3 1026.9 -
28/10:00pm CALM 0 0 - - - - - - - 9.4 1027.0 -
28/09:30pm NNW 2 3 - - - - - - - 10.9 1027.1 -
28/09:00pm CALM 0 0 - - - - - - - 9.9 1027.1 -
28/08:30pm CALM 0 0 - - - - - - - 11.3 1026.9 -
28/08:00pm CALM 0 0 - - - - - - - 11.5 1026.8 -
28/07:30pm NE 2 4 - - - - - - - 12.0 1026.7 -
28/06:30pm ENE 2 2 - - - - - - - 12.4 1026.5 0.0
28/06:00pm ENE 3 4 - - - - - - - 13.5 1026.3 0.0
28/05:30pm E 3 4 - - - - - - - 12.9 1026.1 0.0
28/05:00pm E 3 3 - - - - - - - 15.4 1026.0 0.0
28/04:30pm ESE 2 4 - - - - - - - 18.2 1025.9 0.0
28/04:00pm SE 2 4 - - - - - - - 19.3 1025.8 0.0
28/03:30pm ESE 1 2 - - - - - - - 20.8 1025.8 0.0
28/03:00pm SSE 2 3 - - - - - - - 20.4 1025.6 0.0
28/02:30pm NW 1 2 - - - - - - - 21.9 1025.6 0.0
28/02:00pm SW 2 4 - - - - - - - 20.5 1025.7 0.0
28/01:30pm WSW 2 5 - - - - - - - 20.8 1025.8 0.0
28/01:00pm WSW 3 5 - - - - - - - 21.0 1026.1 0.0
28/12:30pm WNW 3 4 - - - - - - - 20.6 1026.4 0.0
28/12:00pm WSW 2 5 - - - - - - - 19.7 1026.7 0.0
28/11:30am W 1 2 - - - - - - - 19.3 1027.0 0.0
28/11:00am W 2 3 - - - - - - - 17.6 1027.3 0.0
28/10:30am WNW 1 3 - - - - - - - 16.8 1027.5 0.0
28/10:00am NW 2 3 - - - - - - - 15.6 1027.4 0.0
28/09:30am WNW 1 2 - - - - - - - 12.7 1027.6 0.0
28/09:00am WNW 1 2 - - - - - - - 9.8 1027.6 -
28/08:30am CALM 0 0 - - - - - - - 8.5 1027.4 -
28/08:00am SSW 1 2 - - - - - - - 7.0 1027.0 -
28/07:30am NW 2 3 - - - - - - - 6.1 1026.8 -
28/07:00am CALM 0 1 - - - - - - - 7.5 1026.7 -
28/06:30am NNW 3 4 - - - - - - - 8.1 1026.6 -
28/06:00am NNW 2 3 - - - - - - - 7.5 1026.5 -
28/05:30am NNW 3 5 - - - - - - - 7.8 1026.3 -
28/05:00am N 4 5 - - - - - - - 6.2 1026.1 -
28/04:30am NW 2 3 - - - - - - - 7.2 1026.0 -
28/04:00am NW 1 2 - - - - - - - 7.1 1025.9 -
28/03:30am NW 3 3 - - - - - - - 6.7 1025.8 -
28/03:00am CALM 0 2 - - - - - - - 6.1 1025.8 -
28/02:30am CALM 0 0 - - - - - - - 6.6 1025.6 -
28/02:00am - - - - - - - - - - 6.6 1025.6 -
28/01:30am WNW 1 1 - - - - - - - 6.8 1025.6 -
28/01:00am CALM 0 0 - - - - - - - 6.7 1025.6 -
28/12:30am CALM 0 0 - - - - - - - 7.1 1025.7 -
28/12:00am CALM 0 0 - - - - - - - 7.5 1025.8 -
 
Date/Time
EST
Wind Sea
Height
m
Swell Vis
km
Cloud Weather Temp
°C
Press
MSL
hPa
Rain since
9am
mm
Dir  Spd
kts
Gust
kts
Height
m
Period
s
Dir
27/11:30pm NW 1 1 - - - - - - - 7.8 1026.0 -
27/11:00pm N 4 6 - - - - - - - 10.0 1025.9 -
27/10:30pm NNW 2 4 - - - - - - - 8.5 1026.1 -
27/10:00pm NNW 1 3 - - - - - - - 8.4 1026.0 -
27/09:30pm N 4 5 - - - - - - - 10.2 1025.9 -
27/09:00pm NNE 2 4 - - - - - - - 8.7 1025.8 -
27/08:30pm - - - - - - - - - - 9.4 1025.6 -
27/08:00pm CALM 0 0 - - - - - - - 8.3 1025.6 -
27/07:30pm NNE 2 3 - - - - - - - 9.8 1025.3 -
27/07:00pm N 5 5 - - - - - - - 11.0 1024.8 -
27/06:30pm N 4 4 - - - - - - - 11.3 1024.9 -
27/06:00pm NW 1 3 - - - - - - - 11.6 1024.9 -
27/05:30pm CALM 0 0 - - - - - - - 11.2 1024.7 -

Other formats

Comma delimited format used in spreadsheet applications
http://www.bom.gov.au/fwo/IDV60701/IDV60701.95918.axf

JavaScript Object Notation format (JSON) in row-major order
http://www.bom.gov.au/fwo/IDV60701/IDV60701.95918.json

Data quality

Most of these data are generated automatically and are frequently updated. Quality checks on data are not normally performed. It is possible for incorrect values to appear. Refer to information at About Latest Weather Observations and please check the disclaimer before using these data.